createdAt,value
2018-02-22T00:01:08.916Z,25.92
2018-02-22T00:03:37.285Z,25.35
2018-02-22T00:06:05.612Z,26.10
2018-02-22T00:08:33.935Z,25.77
2018-02-22T00:11:02.397Z,26.50
2018-02-22T00:13:30.742Z,27.20
2018-02-22T00:15:59.080Z,26.75
2018-02-22T00:18:27.432Z,26.58
2018-02-22T00:20:55.748Z,24.52
2018-02-22T00:23:24.086Z,25.50
2018-02-22T00:25:52.437Z,24.90
2018-02-22T00:28:20.778Z,25.48
2018-02-22T00:30:49.080Z,25.92
2018-02-22T00:33:18.685Z,26.87
2018-02-22T00:35:47.005Z,26.25
2018-02-22T00:38:15.363Z,29.10
2018-02-22T00:40:43.732Z,28.38
2018-02-22T00:43:12.060Z,27.58
2018-02-22T00:45:40.387Z,28.92
2018-02-22T00:48:08.744Z,27.58
2018-02-22T00:50:37.066Z,28.45
2018-02-22T00:53:05.387Z,26.65
2018-02-22T00:55:33.835Z,26.20
2018-02-22T00:58:02.971Z,27.40
2018-02-22T01:00:32.049Z,26.95
2018-02-22T01:03:00.376Z,27.77
2018-02-22T01:05:28.710Z,25.80
2018-02-22T01:07:57.033Z,25.92
2018-02-22T01:10:25.377Z,24.92
2018-02-22T01:12:53.688Z,25.33
2018-02-22T01:15:22.776Z,25.33
2018-02-22T01:17:52.238Z,26.37
2018-02-22T01:20:20.567Z,24.70
2018-02-22T01:22:48.907Z,27.45
2018-02-22T01:25:17.240Z,24.70
2018-02-22T01:27:45.557Z,26.10
2018-02-22T01:30:13.865Z,26.55
2018-02-22T01:32:42.981Z,26.35
2018-02-22T01:35:11.331Z,27.23
2018-02-22T01:37:40.414Z,26.92
2018-02-22T01:40:09.037Z,24.95
2018-02-22T01:42:37.357Z,24.85
2018-02-22T01:45:05.680Z,25.25
2018-02-22T01:47:34.040Z,23.10
2018-02-22T01:50:02.365Z,24.37
2018-02-22T01:52:30.689Z,26.05
2018-02-22T01:54:59.052Z,25.73
2018-02-22T01:57:27.361Z,25.62
2018-02-22T01:59:55.699Z,25.23
2018-02-22T02:02:24.223Z,28.92
2018-02-22T02:04:52.537Z,25.35
2018-02-22T02:07:20.873Z,25.95
2018-02-22T02:09:49.220Z,27.55
2018-02-22T02:12:17.548Z,27.33
2018-02-22T02:14:45.875Z,25.15
2018-02-22T02:17:14.208Z,27.50
2018-02-22T02:19:43.309Z,26.90
2018-02-22T02:22:12.421Z,27.27
2018-02-22T02:24:40.958Z,25.95
2018-02-22T02:27:09.296Z,28.35
2018-02-22T02:29:37.612Z,27.98
2018-02-22T02:32:05.943Z,28.75
2018-02-22T02:34:34.276Z,28.83
2018-02-22T02:37:02.586Z,27.40
2018-02-22T02:39:30.971Z,28.92
2018-02-22T02:41:59.280Z,27.83
2018-02-22T02:44:27.635Z,27.50
2018-02-22T02:46:56.311Z,27.95
2018-02-22T02:49:24.652Z,26.87
2018-02-22T02:51:52.960Z,27.08
2018-02-22T02:54:21.306Z,26.17
2018-02-22T02:56:49.617Z,26.10
2018-02-22T02:59:17.946Z,26.35
2018-02-22T03:01:46.313Z,27.85
2018-02-22T03:04:14.642Z,26.37
2018-02-22T03:06:42.988Z,25.55
2018-02-22T03:09:11.614Z,23.25
2018-02-22T03:11:39.949Z,26.60
2018-02-22T03:14:08.265Z,25.98
2018-02-22T03:16:37.361Z,29.40
2018-02-22T03:19:06.473Z,25.73
2018-02-22T03:21:34.817Z,28.48
2018-02-22T03:24:03.137Z,25.88
2018-02-22T03:26:31.455Z,27.37
2018-02-22T03:28:59.788Z,27.35
2018-02-22T03:31:28.349Z,26.12
2018-02-22T03:33:57.424Z,26.55
2018-02-22T03:36:25.749Z,26.27
2018-02-22T03:38:54.099Z,26.70
2018-02-22T03:41:23.204Z,25.85
2018-02-22T03:43:52.282Z,26.70
2018-02-22T03:46:20.646Z,26.20
2018-02-22T03:48:48.962Z,26.17
2018-02-22T03:51:17.277Z,27.87
2018-02-22T03:53:46.037Z,27.50
2018-02-22T03:56:14.349Z,27.25
2018-02-22T03:58:42.677Z,26.27
2018-02-22T04:01:11.052Z,28.02
2018-02-22T04:03:40.138Z,28.85
2018-02-22T04:06:08.466Z,29.00
2018-02-22T04:08:36.799Z,29.50
2018-02-22T04:11:05.120Z,29.08
2018-02-22T04:13:33.472Z,29.45
2018-02-22T04:16:03.054Z,30.00
2018-02-22T04:18:31.390Z,27.75
2018-02-22T04:20:59.696Z,27.23
2018-02-22T04:23:28.811Z,28.02
2018-02-22T04:25:57.936Z,27.45
2018-02-22T04:28:26.263Z,28.23
2018-02-22T04:30:54.610Z,28.35
2018-02-22T04:33:22.925Z,27.33
2018-02-22T04:35:51.228Z,27.25
2018-02-22T04:38:20.833Z,27.75
2018-02-22T04:40:49.147Z,27.70
2018-02-22T04:43:17.495Z,26.50
2018-02-22T04:45:46.628Z,25.55
2018-02-22T04:48:14.938Z,26.45
2018-02-22T04:50:43.257Z,25.85
2018-02-22T04:53:11.596Z,26.23
2018-02-22T04:55:39.906Z,28.10
2018-02-22T04:58:09.008Z,26.95
2018-02-22T05:00:38.602Z,26.70
2018-02-22T05:03:07.806Z,25.05
2018-02-22T05:05:36.983Z,28.10
2018-02-22T05:08:05.349Z,25.15
2018-02-22T05:10:33.747Z,27.00
2018-02-22T05:13:02.049Z,27.30
2018-02-22T05:15:31.142Z,26.50
2018-02-22T05:17:59.437Z,26.70
2018-02-22T05:20:27.751Z,26.40
2018-02-22T05:22:56.448Z,25.48
2018-02-22T05:25:24.756Z,28.48
2018-02-22T05:27:53.865Z,26.05
2018-02-22T05:30:22.997Z,27.45
2018-02-22T05:32:51.315Z,28.27
2018-02-22T05:35:19.619Z,25.35
2018-02-22T05:37:48.257Z,27.87
2018-02-22T05:40:16.595Z,26.45
2018-02-22T05:42:44.929Z,27.27
2018-02-22T05:45:13.785Z,25.58
2018-02-22T05:47:42.111Z,26.50
2018-02-22T05:50:10.401Z,26.77
2018-02-22T05:52:39.508Z,26.83
2018-02-22T05:55:08.566Z,27.90
2018-02-22T05:57:36.897Z,27.87
2018-02-22T06:00:05.253Z,28.10
2018-02-22T06:02:33.589Z,27.33
2018-02-22T06:05:01.921Z,26.98
2018-02-22T06:07:30.564Z,27.23
2018-02-22T06:09:58.874Z,26.73
2018-02-22T06:12:27.962Z,27.02
2018-02-22T06:14:57.098Z,26.83
2018-02-22T06:17:25.418Z,26.60
2018-02-22T06:19:53.740Z,27.27
2018-02-22T06:22:22.086Z,26.10
2018-02-22T06:24:50.398Z,27.08
2018-02-22T06:27:18.746Z,28.15
2018-02-22T06:29:47.838Z,25.83
2018-02-22T06:32:16.201Z,27.73
2018-02-22T06:34:44.518Z,26.92
2018-02-22T06:37:12.922Z,28.05
2018-02-22T06:39:41.228Z,28.92
2018-02-22T06:42:09.535Z,28.42
2018-02-22T06:44:38.648Z,26.58
2018-02-22T06:47:07.730Z,28.70
2018-02-22T06:49:36.823Z,28.77
2018-02-22T06:52:06.418Z,30.23
2018-02-22T06:54:34.954Z,29.33
2018-02-22T06:57:03.847Z,29.05
2018-02-22T06:59:32.336Z,28.85
2018-02-22T07:02:00.656Z,27.65
2018-02-22T07:04:28.984Z,27.13
2018-02-22T07:06:57.334Z,28.35
2018-02-22T07:09:26.397Z,31.25
2018-02-22T07:11:55.081Z,27.73
2018-02-22T07:14:24.837Z,28.58
2018-02-22T07:16:53.267Z,29.12
2018-02-22T07:19:21.563Z,29.40
2018-02-22T07:21:49.921Z,26.90
2018-02-22T07:24:18.234Z,29.33
2018-02-22T07:26:47.345Z,29.45
2018-02-22T07:29:15.726Z,29.20
2018-02-22T07:31:44.892Z,28.83
2018-02-22T07:34:13.218Z,28.67
2018-02-22T07:36:41.760Z,28.73
2018-02-22T07:39:10.057Z,28.65
2018-02-22T07:41:38.383Z,28.67
2018-02-22T07:44:06.707Z,28.12
2018-02-22T07:46:35.037Z,28.42
2018-02-22T07:49:03.369Z,28.10
2018-02-22T07:51:31.703Z,28.90
2018-02-22T07:54:00.793Z,26.83
2018-02-22T07:56:29.089Z,29.12
2018-02-22T07:58:57.500Z,29.10
2018-02-22T08:01:26.605Z,30.37
2018-02-22T08:03:54.929Z,27.67
2018-02-22T08:06:24.046Z,27.95
2018-02-22T08:08:52.347Z,29.58
2018-02-22T08:11:21.447Z,29.65
2018-02-22T08:13:50.564Z,28.48
2018-02-22T08:16:18.896Z,28.75
2018-02-22T08:18:47.235Z,27.80
2018-02-22T08:21:16.044Z,29.12
2018-02-22T08:23:44.341Z,27.48
2018-02-22T08:26:12.664Z,29.00
2018-02-22T08:28:41.009Z,29.65
2018-02-22T08:31:10.100Z,29.90
2018-02-22T08:33:39.181Z,30.00
2018-02-22T08:36:07.541Z,30.12
2018-02-22T08:38:35.870Z,29.00
2018-02-22T08:41:04.944Z,28.60
2018-02-22T08:43:33.673Z,28.73
2018-02-22T08:46:02.056Z,28.63
2018-02-22T08:48:30.382Z,28.00
2018-02-22T08:50:58.745Z,26.60
2018-02-22T08:53:27.091Z,27.67
2018-02-22T08:55:55.400Z,28.47
2018-02-22T08:58:23.763Z,27.37
2018-02-22T09:00:52.239Z,28.70
2018-02-22T09:03:20.554Z,28.90
2018-02-22T09:05:49.347Z,26.80
2018-02-22T09:08:17.669Z,25.80
2018-02-22T09:10:46.033Z,28.07
2018-02-22T09:13:15.126Z,26.33
2018-02-22T09:15:43.526Z,28.10
2018-02-22T09:18:11.832Z,29.00
2018-02-22T09:20:40.173Z,26.40
2018-02-22T09:23:08.497Z,27.30
2018-02-22T09:25:36.833Z,28.10
2018-02-22T09:28:05.544Z,24.53
2018-02-22T09:30:33.869Z,24.83
2018-02-22T09:33:02.967Z,24.23
2018-02-22T09:35:32.074Z,26.77
2018-02-22T09:38:01.156Z,23.97
2018-02-22T09:40:29.480Z,26.23
2018-02-22T09:42:57.905Z,25.93
2018-02-22T09:45:26.220Z,26.37
2018-02-22T09:47:54.532Z,27.77
2018-02-22T09:50:23.219Z,23.47
2018-02-22T09:52:51.672Z,24.77
2018-02-22T09:55:20.007Z,25.10
2018-02-22T09:57:48.347Z,22.53
2018-02-22T10:00:16.700Z,24.70
2018-02-22T10:02:45.038Z,24.03
2018-02-22T10:05:13.384Z,22.70
2018-02-22T10:07:41.724Z,23.90
2018-02-22T10:10:10.812Z,29.17
2018-02-22T10:12:40.193Z,22.17
2018-02-22T10:15:08.482Z,23.10
2018-02-22T10:17:36.811Z,25.03
2018-02-22T10:20:05.156Z,23.37
2018-02-22T10:22:34.229Z,23.43
2018-02-22T10:25:02.554Z,21.77
2018-02-22T10:27:31.136Z,22.57
2018-02-22T10:30:00.227Z,22.20
2018-02-22T10:32:28.553Z,21.50
2018-02-22T10:34:57.244Z,23.00
2018-02-22T10:37:25.541Z,24.03
2018-02-22T10:39:54.629Z,23.70
2018-02-22T10:42:23.783Z,22.63
2018-02-22T10:44:52.095Z,22.70
2018-02-22T10:47:20.399Z,24.67
2018-02-22T10:49:48.749Z,22.90
2018-02-22T10:52:17.078Z,24.40
2018-02-22T10:54:45.388Z,24.47
2018-02-22T10:57:13.983Z,25.47
2018-02-22T10:59:42.410Z,25.27
2018-02-22T11:02:16.412Z,23.40
2018-02-22T11:04:44.711Z,22.20
2018-02-22T11:07:13.032Z,22.37
2018-02-22T11:09:41.359Z,22.17
2018-02-22T11:12:09.680Z,22.23
2018-02-22T11:14:38.025Z,22.60
2018-02-22T11:17:06.880Z,24.50
2018-02-22T11:19:35.204Z,19.00
2018-02-22T11:22:03.524Z,20.13
2018-02-22T11:24:31.877Z,21.07
2018-02-22T11:27:00.204Z,22.20
2018-02-22T11:29:28.543Z,20.33
2018-02-22T11:31:56.880Z,21.97
2018-02-22T11:34:25.182Z,21.90
2018-02-22T11:36:53.500Z,23.07
2018-02-22T11:39:22.237Z,22.17
2018-02-22T11:41:50.571Z,22.53
2018-02-22T11:44:19.640Z,24.10
2018-02-22T11:46:48.001Z,22.63
2018-02-22T11:49:16.391Z,23.77
2018-02-22T11:51:44.750Z,24.90
2018-02-22T11:54:13.099Z,20.87
2018-02-22T11:56:42.162Z,19.60
2018-02-22T11:59:10.514Z,20.83
2018-02-22T12:01:39.331Z,21.70
2018-02-22T12:04:07.666Z,21.27
2018-02-22T12:06:35.994Z,22.43
2018-02-22T12:09:04.348Z,23.17
2018-02-22T12:11:32.684Z,23.23
2018-02-22T12:14:01.017Z,24.47
2018-02-22T12:16:29.363Z,26.17
2018-02-22T12:18:57.681Z,28.53
2018-02-22T12:21:25.998Z,24.40
2018-02-22T12:23:54.879Z,26.80
2018-02-22T12:26:23.220Z,25.23
2018-02-22T12:28:51.669Z,30.83
2018-02-22T12:31:20.018Z,26.10
2018-02-22T12:33:49.110Z,26.80
2018-02-22T12:36:18.227Z,25.03
2018-02-22T12:38:46.593Z,25.37
2018-02-22T12:41:14.916Z,25.00
2018-02-22T12:43:43.288Z,24.93
2018-02-22T12:46:12.248Z,26.00
2018-02-22T12:48:40.578Z,26.90
2018-02-22T12:51:08.930Z,25.97
2018-02-22T12:53:37.304Z,26.43
2018-02-22T12:56:05.721Z,27.30
2018-02-22T12:58:34.084Z,25.83
2018-02-22T13:01:02.440Z,25.57
2018-02-22T13:03:30.788Z,26.30
2018-02-22T13:05:59.107Z,25.60
2018-02-22T13:08:27.725Z,26.20
2018-02-22T13:10:56.153Z,25.87
2018-02-22T13:13:24.488Z,26.57
2018-02-22T13:15:52.857Z,25.80
2018-02-22T13:18:21.312Z,25.00
2018-02-22T13:20:49.628Z,25.30
2018-02-22T13:23:17.980Z,26.10
2018-02-22T13:25:46.312Z,28.07
2018-02-22T13:28:14.752Z,28.63
2018-02-22T13:30:43.256Z,25.50
2018-02-22T13:33:29.025Z,25.03
2018-02-22T13:35:57.489Z,23.03
2018-02-22T13:38:43.652Z,24.03
2018-02-22T13:41:12.027Z,22.80
2018-02-22T13:43:40.367Z,24.20
2018-02-22T13:46:08.758Z,24.63
2018-02-22T13:48:55.193Z,24.13
2018-02-22T13:51:23.552Z,24.80
2018-02-22T13:53:51.880Z,23.67
2018-02-22T13:56:37.958Z,23.73
2018-02-22T13:59:06.301Z,24.27
2018-02-22T14:01:52.444Z,24.53
2018-02-22T14:04:20.921Z,24.00
2018-02-22T14:06:49.301Z,26.00
2018-02-22T14:09:17.903Z,23.90
2018-02-22T14:11:46.249Z,24.30
2018-02-22T14:14:14.584Z,24.67
2018-02-22T14:16:42.990Z,24.80
2018-02-22T14:19:11.427Z,23.83
2018-02-22T14:21:39.751Z,25.10
2018-02-22T14:24:08.150Z,24.97
2018-02-22T14:26:36.515Z,24.17
2018-02-22T14:29:04.842Z,24.40
2018-02-22T14:31:33.289Z,25.33
2018-02-22T14:34:01.724Z,23.53
2018-02-22T14:36:30.076Z,25.13
2018-02-22T14:38:58.538Z,26.23
2018-02-22T14:41:27.699Z,27.17
2018-02-22T14:43:56.081Z,26.90
2018-02-22T14:46:24.503Z,28.47
2018-02-22T14:48:52.893Z,26.10
2018-02-22T14:51:21.293Z,26.80
2018-02-22T14:53:49.798Z,28.57
2018-02-22T14:56:18.169Z,27.67
2018-02-22T14:58:47.308Z,28.50
2018-02-22T15:01:15.686Z,28.00
2018-02-22T15:03:44.076Z,26.23
2018-02-22T15:06:12.428Z,27.77
2018-02-22T15:08:40.829Z,26.70
2018-02-22T15:11:09.194Z,28.67
2018-02-22T15:13:37.517Z,28.83
2018-02-22T15:16:07.288Z,28.60
2018-02-22T15:18:35.643Z,27.37
2018-02-22T15:21:05.453Z,28.77
2018-02-22T15:23:34.609Z,27.73
2018-02-22T15:26:02.975Z,26.63
2018-02-22T15:28:31.325Z,28.10
2018-02-22T15:30:59.693Z,27.87
2018-02-22T15:33:28.072Z,26.85
2018-02-22T15:35:57.172Z,25.80
2018-02-22T15:38:25.971Z,24.08
2018-02-22T15:40:54.338Z,23.87
2018-02-22T15:43:22.734Z,25.67
2018-02-22T15:45:51.182Z,24.55
2018-02-22T15:48:19.587Z,27.65
2018-02-22T15:50:47.929Z,23.70
2018-02-22T15:53:16.316Z,25.27
2018-02-22T15:55:45.472Z,25.90
2018-02-22T15:58:13.794Z,25.45
2018-02-22T16:00:43.024Z,26.75
2018-02-22T16:03:11.355Z,26.87
2018-02-22T16:05:39.723Z,26.67
2018-02-22T16:08:08.873Z,26.50
2018-02-22T16:10:37.207Z,24.77
2018-02-22T16:13:05.525Z,25.70
2018-02-22T16:15:33.860Z,25.80
2018-02-22T16:18:02.192Z,26.73
2018-02-22T16:20:30.568Z,25.23
2018-02-22T16:22:59.226Z,23.98
2018-02-22T16:25:27.571Z,22.40
2018-02-22T16:27:55.916Z,23.35
2018-02-22T16:30:24.280Z,24.10
2018-02-22T16:32:52.632Z,22.87
2018-02-22T16:35:20.972Z,24.48
2018-02-22T16:37:49.324Z,22.40
2018-02-22T16:40:17.700Z,23.65
2018-02-22T16:42:46.046Z,23.52
2018-02-22T16:45:14.488Z,23.40
2018-02-22T16:47:42.816Z,22.73
2018-02-22T16:50:11.964Z,22.60
2018-02-22T16:52:40.302Z,22.65
2018-02-22T16:55:09.430Z,22.60
2018-02-22T16:57:37.741Z,22.08
2018-02-22T17:00:06.084Z,22.55
2018-02-22T17:02:34.401Z,21.87
2018-02-22T17:05:02.753Z,20.90
2018-02-22T17:07:31.563Z,22.48
2018-02-22T17:09:59.896Z,21.65
2018-02-22T17:12:28.276Z,23.17
2018-02-22T17:14:56.678Z,24.87
2018-02-22T17:17:42.887Z,23.55
2018-02-22T17:20:11.235Z,24.20
2018-02-22T17:22:39.610Z,27.00
2018-02-22T17:25:07.952Z,26.30
2018-02-22T17:27:42.190Z,25.77
2018-02-22T17:30:16.759Z,25.27
2018-02-22T17:32:45.874Z,25.10
2018-02-22T17:35:19.651Z,25.50
2018-02-22T17:37:50.980Z,26.77
2018-02-22T17:40:19.526Z,27.87
2018-02-22T17:42:47.884Z,26.67
2018-02-22T17:45:16.624Z,25.65
2018-02-22T17:47:44.961Z,25.30
2018-02-22T17:50:13.334Z,24.40
2018-02-22T17:52:41.676Z,25.95
2018-02-22T17:55:10.002Z,24.37
2018-02-22T17:57:38.346Z,21.98
2018-02-22T18:00:06.745Z,22.67
2018-02-22T18:02:35.057Z,22.70
2018-02-22T18:05:04.148Z,21.75
2018-02-22T18:07:32.928Z,20.88
2018-02-22T18:10:01.297Z,20.02
2018-02-22T18:12:29.647Z,21.65
2018-02-22T18:14:58.008Z,19.90
2018-02-22T18:17:26.353Z,18.20
2018-02-22T18:19:54.759Z,17.67
2018-02-22T18:22:23.150Z,18.55
2018-02-22T18:24:51.495Z,16.70
2018-02-22T18:27:19.860Z,16.90
2018-02-22T18:29:48.983Z,17.70
2018-02-22T18:32:17.272Z,15.73
2018-02-22T18:34:45.619Z,17.60
2018-02-22T18:37:19.537Z,15.32
2018-02-22T18:39:48.609Z,13.50
2018-02-22T18:42:20.514Z,12.68
2018-02-22T18:44:54.476Z,12.10
2018-02-22T18:47:23.196Z,11.23
2018-02-22T18:49:51.538Z,9.82
2018-02-22T18:52:21.273Z,8.68
2018-02-22T18:54:49.602Z,8.27
2018-02-22T18:57:17.954Z,8.45
2018-02-22T18:59:47.037Z,8.68
2018-02-22T19:02:16.127Z,7.78
2018-02-22T19:04:45.230Z,8.10
2018-02-22T19:07:14.339Z,7.57
2018-02-22T19:09:43.012Z,7.45
2018-02-22T19:12:12.078Z,7.60
2018-02-22T19:14:40.633Z,7.70
2018-02-22T19:17:08.977Z,7.62
2018-02-22T19:19:38.065Z,6.68
2018-02-22T19:22:07.132Z,7.50
2018-02-22T19:24:35.468Z,7.45
2018-02-22T19:27:03.777Z,6.25
2018-02-22T19:29:32.214Z,6.80
2018-02-22T19:32:01.619Z,6.22
2018-02-22T19:34:29.930Z,6.40
2018-02-22T19:36:58.308Z,7.70
2018-02-22T19:39:26.650Z,6.37
2018-02-22T19:41:55.003Z,6.87
2018-02-22T19:44:23.347Z,6.55
2018-02-22T19:46:51.694Z,6.07
2018-02-22T19:49:20.024Z,5.75
2018-02-22T19:51:48.316Z,6.22
2018-02-22T19:54:16.880Z,6.07
2018-02-22T19:56:45.176Z,6.25
2018-02-22T19:59:13.499Z,6.18
2018-02-22T20:01:42.645Z,6.10
2018-02-22T20:04:10.971Z,5.93
2018-02-22T20:06:40.054Z,5.85
2018-02-22T20:09:09.674Z,6.28
2018-02-22T20:11:38.111Z,5.70
2018-02-22T20:14:06.596Z,5.50
2018-02-22T20:16:35.959Z,6.35
2018-02-22T20:19:04.297Z,4.90
2018-02-22T20:21:33.394Z,6.55
2018-02-22T20:24:02.501Z,5.85
2018-02-22T20:26:31.557Z,6.20
2018-02-22T20:29:00.556Z,5.57
2018-02-22T20:31:28.911Z,5.93
2018-02-22T20:33:57.236Z,6.15
2018-02-22T20:36:26.328Z,6.20
2018-02-22T20:38:55.489Z,5.35
2018-02-22T20:41:23.844Z,5.90
2018-02-22T20:43:52.192Z,6.18
2018-02-22T20:46:20.572Z,6.15
2018-02-22T20:48:49.116Z,6.00
2018-02-22T20:51:18.218Z,6.70
2018-02-22T20:53:46.564Z,6.12
2018-02-22T20:56:14.904Z,5.75
2018-02-22T20:58:43.236Z,16.48
2018-02-22T21:01:12.683Z,6.10
2018-02-22T21:03:41.237Z,5.47
2018-02-22T21:06:09.626Z,6.30
2018-02-22T21:08:37.990Z,6.35
2018-02-22T21:11:06.314Z,6.65
2018-02-22T21:13:35.396Z,7.07
2018-02-22T21:16:04.504Z,6.60
2018-02-22T21:18:33.612Z,6.18
2018-02-22T21:21:01.917Z,5.65
2018-02-22T21:23:30.677Z,6.30
2018-02-22T21:25:59.017Z,6.40
2018-02-22T21:28:27.340Z,6.35
2018-02-22T21:30:55.766Z,6.43
2018-02-22T21:33:24.909Z,7.43
2018-02-22T21:35:53.217Z,7.30
2018-02-22T21:38:21.633Z,6.65
2018-02-22T21:40:50.022Z,7.25
2018-02-22T21:43:18.361Z,6.65
2018-02-22T21:45:46.915Z,7.10
2018-02-22T21:48:15.226Z,6.53
2018-02-22T21:50:43.564Z,6.68
2018-02-22T21:53:11.916Z,6.18
2018-02-22T21:55:40.217Z,6.68
2018-02-22T21:58:09.355Z,6.62
2018-02-22T22:00:37.710Z,6.10
2018-02-22T22:03:06.033Z,6.07
2018-02-22T22:05:34.342Z,6.43
2018-02-22T22:08:03.740Z,5.95
2018-02-22T22:10:32.818Z,6.25
2018-02-22T22:13:01.132Z,6.10
2018-02-22T22:15:29.472Z,6.37
2018-02-22T22:17:57.848Z,6.32
2018-02-22T22:20:26.150Z,6.87
2018-02-22T22:22:55.279Z,7.70
2018-02-22T22:25:23.624Z,6.05
2018-02-22T22:27:52.731Z,6.78
2018-02-22T22:30:22.181Z,7.20
2018-02-22T22:32:50.565Z,6.30
2018-02-22T22:35:18.876Z,6.80
2018-02-22T22:37:47.220Z,7.40
2018-02-22T22:40:16.334Z,7.90
2018-02-22T22:42:44.712Z,7.95
2018-02-22T22:45:13.042Z,7.90
2018-02-22T22:47:41.369Z,7.80
2018-02-22T22:50:09.668Z,8.15
2018-02-22T22:52:39.260Z,7.65
2018-02-22T22:55:07.601Z,6.90
2018-02-22T22:57:35.940Z,7.30
2018-02-22T23:00:04.338Z,7.55
2018-02-22T23:02:32.726Z,7.32
2018-02-22T23:05:01.081Z,8.55
2018-02-22T23:07:29.468Z,7.50
2018-02-22T23:09:58.575Z,8.15
2018-02-22T23:12:27.103Z,8.35
2018-02-22T23:14:56.429Z,8.52
2018-02-22T23:17:24.723Z,7.95
2018-02-22T23:19:53.018Z,8.15
2018-02-22T23:22:21.395Z,8.32
2018-02-22T23:24:49.703Z,7.32
2018-02-22T23:27:18.024Z,8.18
2018-02-22T23:29:46.348Z,8.02
2018-02-22T23:32:14.667Z,8.25
2018-02-22T23:34:42.973Z,7.93
2018-02-22T23:37:12.216Z,7.93
2018-02-22T23:39:40.514Z,7.95
2018-02-22T23:45:10.152Z,8.63
2018-02-22T23:47:38.491Z,9.25
2018-02-22T23:50:06.788Z,9.88
2018-02-22T23:52:35.096Z,9.40
2018-02-22T23:55:03.701Z,9.70
2018-02-22T23:57:32.054Z,8.82
